createdAt,value
2023-04-15T00:04:41.456Z,27.39
2023-04-15T00:09:43.492Z,27.28
2023-04-15T00:14:45.445Z,27.59
2023-04-15T00:19:47.346Z,27.74
2023-04-15T00:24:49.354Z,27.98
2023-04-15T00:29:51.213Z,28.10
2023-04-15T00:34:53.127Z,27.96
2023-04-15T00:39:55.047Z,27.98
2023-04-15T00:44:56.920Z,28.48
2023-04-15T00:49:58.819Z,28.79
2023-04-15T00:55:00.871Z,28.58
2023-04-15T01:00:02.856Z,28.06
2023-04-15T01:05:05.668Z,28.79
2023-04-15T01:10:08.129Z,28.71
2023-04-15T01:15:10.502Z,28.29
2023-04-15T01:20:12.529Z,28.67
2023-04-15T01:25:19.648Z,28.66
2023-04-15T01:30:21.597Z,28.47
2023-04-15T01:35:23.600Z,28.99
2023-04-15T01:40:25.395Z,28.38
2023-04-15T01:45:28.848Z,28.57
2023-04-15T01:50:32.044Z,28.81
2023-04-15T01:55:35.237Z,28.54
2023-04-15T02:00:38.453Z,29.00
2023-04-15T02:05:41.500Z,28.86
2023-04-15T02:10:44.680Z,29.28
2023-04-15T02:15:51.056Z,28.96
2023-04-15T02:20:54.174Z,29.37
2023-04-15T02:25:57.242Z,28.78
2023-04-15T02:31:00.277Z,28.81
2023-04-15T02:36:03.547Z,29.50
2023-04-15T02:41:06.705Z,29.08
2023-04-15T02:46:09.869Z,29.39
2023-04-15T02:51:16.822Z,29.67
2023-04-15T02:56:20.023Z,29.66
2023-04-15T03:01:23.177Z,29.30
2023-04-15T03:06:26.436Z,29.04
2023-04-15T03:11:29.858Z,29.14
2023-04-15T03:16:32.919Z,28.96
2023-04-15T03:21:36.093Z,28.99
2023-04-15T03:26:39.205Z,29.40
2023-04-15T03:31:42.391Z,29.07
2023-04-15T03:36:46.053Z,29.08
2023-04-15T03:41:49.223Z,28.92
2023-04-15T03:46:52.429Z,28.88
2023-04-15T03:51:55.634Z,29.14
2023-04-15T03:56:58.709Z,28.57
2023-04-15T04:02:01.875Z,28.94
2023-04-15T04:07:05.019Z,28.46
2023-04-15T04:12:08.222Z,28.63
2023-04-15T04:17:11.459Z,28.19
2023-04-15T04:22:14.694Z,28.67
2023-04-15T04:27:18.014Z,28.51
2023-04-15T04:32:21.104Z,28.76
2023-04-15T04:37:24.422Z,28.22
2023-04-15T04:42:28.925Z,27.96
2023-04-15T04:47:32.146Z,27.70
2023-04-15T04:52:35.315Z,27.77
2023-04-15T04:57:38.433Z,28.04
2023-04-15T05:02:42.414Z,27.87
2023-04-15T05:07:46.466Z,27.36
2023-04-15T05:12:49.704Z,27.53
2023-04-15T05:17:52.872Z,27.34
2023-04-15T05:22:56.122Z,27.17
2023-04-15T05:27:59.228Z,26.97
2023-04-15T05:33:02.362Z,26.42
2023-04-15T05:38:06.056Z,25.81
2023-04-15T05:43:09.258Z,25.42
2023-04-15T05:48:12.421Z,25.08
2023-04-15T05:53:15.479Z,24.56
2023-04-15T05:58:18.570Z,24.46
2023-04-15T06:03:21.698Z,24.73
2023-04-15T06:08:24.814Z,24.45
2023-04-15T06:13:27.957Z,23.35
2023-04-15T06:18:31.055Z,22.68
2023-04-15T06:23:36.974Z,22.96
2023-04-15T06:28:40.027Z,21.75
2023-04-15T06:33:43.096Z,20.29
2023-04-15T06:38:46.186Z,20.31
2023-04-15T06:43:49.334Z,19.58
2023-04-15T06:48:52.478Z,19.22
2023-04-15T06:53:55.559Z,18.78
2023-04-15T06:58:58.742Z,17.96
2023-04-15T07:04:01.882Z,16.01
2023-04-15T07:09:05.230Z,16.19
2023-04-15T07:14:08.650Z,16.14
2023-04-15T07:19:11.709Z,15.51
2023-04-15T07:24:14.844Z,14.20
2023-04-15T07:29:17.932Z,13.58
2023-04-15T07:34:20.987Z,13.36
2023-04-15T07:39:24.184Z,13.32
2023-04-15T07:44:27.595Z,13.96
2023-04-15T07:49:30.783Z,14.04
2023-04-15T07:54:33.942Z,15.87
2023-04-15T07:59:37.041Z,17.11
2023-04-15T08:04:40.403Z,17.90
2023-04-15T08:09:43.743Z,18.77
2023-04-15T08:14:46.978Z,18.53
2023-04-15T08:19:50.078Z,19.34
2023-04-15T08:24:53.186Z,18.96
2023-04-15T08:29:56.309Z,18.95
2023-04-15T08:34:59.382Z,19.22
2023-04-15T08:40:02.494Z,19.19
2023-04-15T08:45:06.028Z,19.06
2023-04-15T08:50:09.688Z,19.37
2023-04-15T08:55:12.960Z,19.04
2023-04-15T09:00:16.267Z,19.51
2023-04-15T09:05:19.332Z,19.27
2023-04-15T09:10:22.414Z,19.04
2023-04-15T09:15:25.890Z,18.97
2023-04-15T09:20:28.935Z,18.76
2023-04-15T09:25:34.301Z,18.67
2023-04-15T09:30:38.162Z,19.14
2023-04-15T09:35:41.301Z,18.80
2023-04-15T09:40:44.400Z,18.52
2023-04-15T09:45:53.283Z,18.43
2023-04-15T09:50:58.329Z,18.46
2023-04-15T09:56:01.389Z,18.21
2023-04-15T10:01:05.165Z,18.44
2023-04-15T10:06:08.315Z,17.86
2023-04-15T10:11:11.397Z,17.87
2023-04-15T10:16:20.225Z,17.57
2023-04-15T10:21:23.385Z,17.27
2023-04-15T10:26:26.419Z,17.50
2023-04-15T10:31:29.739Z,17.40
2023-04-15T10:36:33.316Z,17.37
2023-04-15T10:41:36.375Z,17.23
2023-04-15T10:46:40.765Z,17.03
2023-04-15T10:51:47.681Z,17.28
2023-04-15T10:57:23.086Z,17.29
2023-04-15T11:02:57.334Z,17.05
2023-04-15T11:08:00.481Z,17.07
2023-04-15T11:13:16.560Z,17.13
2023-04-15T11:18:20.744Z,16.94
2023-04-15T11:23:40.094Z,17.49
2023-04-15T11:28:44.900Z,17.08
2023-04-15T11:34:00.813Z,17.12
2023-04-15T11:39:05.025Z,17.27
2023-04-15T11:44:16.828Z,16.81
2023-04-15T11:49:31.900Z,17.13
2023-04-15T11:54:33.840Z,17.57
2023-04-15T11:59:45.536Z,17.04
2023-04-15T12:04:48.387Z,17.37
2023-04-15T12:09:55.644Z,17.22
2023-04-15T12:14:57.558Z,17.24
2023-04-15T12:19:59.463Z,17.77
2023-04-15T12:25:01.326Z,17.29
2023-04-15T12:30:06.858Z,17.55
2023-04-15T12:35:08.884Z,17.58
2023-04-15T12:40:11.186Z,17.65
2023-04-15T12:45:13.180Z,17.82
2023-04-15T12:50:15.140Z,17.91
2023-04-15T12:55:17.111Z,18.08
2023-04-15T13:00:19.223Z,18.08
2023-04-15T13:05:21.284Z,17.82
2023-04-15T13:10:23.168Z,17.73
2023-04-15T13:15:25.011Z,17.56
2023-04-15T13:20:27.048Z,17.26
2023-04-15T13:25:28.955Z,17.40
2023-04-15T13:30:30.952Z,17.50
2023-04-15T13:35:32.874Z,17.52
2023-04-15T13:40:34.869Z,17.36
2023-04-15T13:45:36.975Z,17.60
2023-04-15T13:50:41.124Z,17.83
2023-04-15T13:55:43.614Z,17.98
2023-04-15T14:00:45.536Z,18.12
2023-04-15T14:05:47.490Z,18.28
2023-04-15T14:10:49.560Z,18.31
2023-04-15T14:15:51.449Z,18.22
2023-04-15T14:20:53.508Z,18.79
2023-04-15T14:25:55.334Z,18.67
2023-04-15T14:30:57.300Z,18.89
2023-04-15T14:35:59.222Z,18.94
2023-04-15T14:41:01.152Z,18.91
2023-04-15T14:46:03.091Z,19.07
2023-04-15T14:51:05.105Z,18.90
2023-04-15T14:56:07.327Z,18.97
2023-04-15T15:01:09.314Z,19.09
2023-04-15T15:06:11.272Z,19.19
2023-04-15T15:11:13.191Z,19.28
2023-04-15T15:16:15.280Z,19.51
2023-04-15T15:21:17.446Z,18.82
2023-04-15T15:26:19.289Z,18.60
2023-04-15T15:31:21.814Z,18.89
2023-04-15T15:36:23.703Z,19.02
2023-04-15T15:41:26.028Z,19.00
2023-04-15T15:46:28.417Z,19.34
2023-04-15T15:51:30.517Z,19.48
2023-04-15T15:56:32.387Z,19.38
2023-04-15T16:01:34.223Z,19.61
2023-04-15T16:06:36.329Z,19.42
2023-04-15T16:11:38.220Z,19.61
2023-04-15T16:16:40.256Z,19.99
2023-04-15T16:21:43.002Z,20.13
2023-04-15T16:26:44.664Z,20.26
2023-04-15T16:31:47.540Z,20.36
2023-04-15T16:36:49.499Z,20.54
2023-04-15T16:41:51.454Z,20.37
2023-04-15T16:46:53.464Z,20.38
2023-04-15T16:51:55.377Z,20.47
2023-04-15T16:56:57.441Z,20.50
2023-04-15T17:01:59.496Z,21.01
2023-04-15T17:07:01.452Z,21.04
2023-04-15T17:12:03.939Z,21.02
2023-04-15T17:17:06.266Z,20.76
2023-04-15T17:22:12.743Z,20.72
2023-04-15T17:27:18.043Z,21.09
2023-04-15T17:32:21.493Z,21.41
2023-04-15T17:37:43.354Z,21.62
2023-04-15T17:43:05.125Z,21.28
2023-04-15T17:48:27.083Z,21.33
2023-04-15T17:53:48.909Z,21.57
2023-04-15T17:59:10.768Z,21.66
2023-04-15T18:04:32.827Z,22.37
2023-04-15T18:09:54.644Z,22.15
2023-04-15T18:15:16.522Z,22.36
2023-04-15T18:20:38.315Z,22.02
2023-04-15T18:25:40.779Z,22.55
2023-04-15T18:30:42.618Z,22.46
2023-04-15T18:35:44.560Z,22.74
2023-04-15T18:40:46.395Z,22.66
2023-04-15T18:45:48.325Z,23.32
2023-04-15T18:50:50.237Z,23.29
2023-04-15T18:55:52.214Z,23.57
2023-04-15T19:00:54.176Z,23.15
2023-04-15T19:05:56.708Z,23.17
2023-04-15T19:10:58.704Z,23.63
2023-04-15T19:16:00.563Z,23.45
2023-04-15T19:21:02.461Z,23.96
2023-04-15T19:26:04.278Z,23.60
2023-04-15T19:31:06.236Z,23.66
2023-04-15T19:36:08.115Z,24.18
2023-04-15T19:41:10.045Z,24.00
2023-04-15T19:46:12.063Z,24.21
2023-04-15T19:51:13.970Z,24.07
2023-04-15T19:56:16.052Z,24.25
2023-04-15T20:01:17.969Z,24.80
2023-04-15T20:06:19.959Z,24.80
2023-04-15T20:11:21.899Z,24.87
2023-04-15T20:16:24.037Z,24.45
2023-04-15T20:21:25.953Z,24.51
2023-04-15T20:26:27.844Z,25.10
2023-04-15T20:31:29.854Z,24.98
2023-04-15T20:36:31.999Z,24.86
2023-04-15T20:41:33.910Z,25.51
2023-04-15T20:46:35.871Z,25.65
2023-04-15T20:51:37.900Z,25.39
2023-04-15T20:56:39.976Z,25.96
2023-04-15T21:01:41.946Z,25.64
2023-04-15T21:06:43.868Z,25.99
2023-04-15T21:16:55.080Z,26.11
2023-04-15T21:21:56.971Z,26.19
2023-04-15T21:26:58.841Z,26.23
2023-04-15T21:32:00.721Z,26.13
2023-04-15T21:37:02.816Z,26.54
2023-04-15T21:42:04.828Z,26.51
2023-04-15T21:47:06.688Z,26.93
2023-04-15T21:52:08.731Z,26.60
2023-04-15T21:57:10.588Z,26.16
2023-04-15T22:02:12.482Z,26.04
2023-04-15T22:07:14.380Z,26.55
2023-04-15T22:12:16.332Z,26.44
2023-04-15T22:17:18.180Z,26.68
2023-04-15T22:22:20.111Z,26.67
2023-04-15T22:27:28.645Z,26.91
2023-04-15T22:32:30.566Z,26.83
2023-04-15T22:37:33.082Z,26.75
2023-04-15T22:42:35.186Z,26.55
2023-04-15T22:47:37.073Z,26.28
2023-04-15T22:52:39.083Z,26.69
2023-04-15T22:57:41.007Z,26.72
2023-04-15T23:02:42.898Z,26.68
2023-04-15T23:07:44.811Z,26.61
2023-04-15T23:12:46.861Z,26.62
2023-04-15T23:17:48.929Z,27.12
2023-04-15T23:22:50.917Z,27.12
2023-04-15T23:27:52.793Z,26.94
2023-04-15T23:32:54.597Z,27.22
2023-04-15T23:37:56.504Z,27.20
2023-04-15T23:42:58.523Z,27.00
2023-04-15T23:48:00.572Z,26.89
2023-04-15T23:53:02.531Z,27.47
2023-04-15T23:58:04.447Z,27.28
